Terminal Aerodrome Forecast
Issued by NWS Twin Cities, MN

Home | Current Version | Previous Version | Graphics & Text | Print | Product List | Glossary On
Versions: 1 2 3 4 5 6 7 8 9 10 11 12 13 14 15 16 17 18 19 20 21 22 23 24 25 26 27 28 29 30 31
868
FTUS43 KMPX 250217 AAA
TAFMSP
TAF AMD
KMSP 250217Z 2502/2606 13011KT P6SM OVC015
     FM250300 13011KT 6SM -SHRA VCTS OVC015CB
      TEMPO 2505/2509 3SM TSRA BR OVC008CB
     FM251000 18009KT P6SM SCT100
     FM251800 24011G17KT P6SM BKN025 OVC050
     FM252200 27018G25KT P6SM OVC025
     FM260100 29013KT P6SM OVC015=

USA.gov is the U.S. government's official web portal to all federal, state and local government web resources and services.